sensor_id;sensor_type;location;lat;lon;timestamp;P1;durP1;ratioP1;P2;durP2;ratioP2
69730;SDS011;56996;48.138;11.538;2023-08-17T00:01:35;9.00;;;5.50;;
69730;SDS011;56996;48.138;11.538;2023-08-17T00:04:02;13.10;;;5.90;;
69730;SDS011;56996;48.138;11.538;2023-08-17T00:06:29;10.30;;;5.90;;
69730;SDS011;56996;48.138;11.538;2023-08-17T00:08:56;9.60;;;6.20;;
69730;SDS011;56996;48.138;11.538;2023-08-17T00:11:23;9.80;;;5.90;;
69730;SDS011;56996;48.138;11.538;2023-08-17T00:13:49;10.90;;;6.10;;
69730;SDS011;56996;48.138;11.538;2023-08-17T00:16:17;9.80;;;6.20;;
69730;SDS011;56996;48.138;11.538;2023-08-17T00:18:44;10.40;;;5.70;;
69730;SDS011;56996;48.138;11.538;2023-08-17T00:21:11;11.20;;;6.10;;
69730;SDS011;56996;48.138;11.538;2023-08-17T00:23:37;10.10;;;6.20;;
69730;SDS011;56996;48.138;11.538;2023-08-17T00:26:04;10.00;;;6.10;;
69730;SDS011;56996;48.138;11.538;2023-08-17T00:28:31;9.50;;;5.70;;
69730;SDS011;56996;48.138;11.538;2023-08-17T00:30:59;10.90;;;5.90;;
69730;SDS011;56996;48.138;11.538;2023-08-17T00:33:27;10.90;;;6.00;;
69730;SDS011;56996;48.138;11.538;2023-08-17T00:35:54;10.20;;;5.90;;
69730;SDS011;56996;48.138;11.538;2023-08-17T00:38:20;10.20;;;5.70;;
69730;SDS011;56996;48.138;11.538;2023-08-17T00:40:48;10.40;;;6.00;;
69730;SDS011;56996;48.138;11.538;2023-08-17T00:43:14;10.40;;;6.20;;
69730;SDS011;56996;48.138;11.538;2023-08-17T00:45:41;10.40;;;5.50;;
69730;SDS011;56996;48.138;11.538;2023-08-17T00:48:11;8.70;;;5.20;;
69730;SDS011;56996;48.138;11.538;2023-08-17T00:50:39;9.70;;;5.70;;
69730;SDS011;56996;48.138;11.538;2023-08-17T00:53:07;9.30;;;5.60;;
69730;SDS011;56996;48.138;11.538;2023-08-17T00:55:40;10.50;;;6.00;;
69730;SDS011;56996;48.138;11.538;2023-08-17T00:58:07;10.30;;;6.00;;
69730;SDS011;56996;48.138;11.538;2023-08-17T01:00:34;10.30;;;5.90;;
69730;SDS011;56996;48.138;11.538;2023-08-17T01:03:02;9.90;;;6.20;;
69730;SDS011;56996;48.138;11.538;2023-08-17T01:05:30;10.70;;;6.20;;
69730;SDS011;56996;48.138;11.538;2023-08-17T01:07:59;11.90;;;6.30;;
69730;SDS011;56996;48.138;11.538;2023-08-17T01:10:57;9.90;;;5.80;;
69730;SDS011;56996;48.138;11.538;2023-08-17T01:17:12;9.90;;;6.20;;
69730;SDS011;56996;48.138;11.538;2023-08-17T01:19:44;10.30;;;6.30;;
69730;SDS011;56996;48.138;11.538;2023-08-17T01:22:13;12.00;;;6.50;;
69730;SDS011;56996;48.138;11.538;2023-08-17T01:24:41;9.30;;;6.40;;
69730;SDS011;56996;48.138;11.538;2023-08-17T01:27:07;10.00;;;6.20;;
69730;SDS011;56996;48.138;11.538;2023-08-17T01:29:35;10.00;;;6.10;;
69730;SDS011;56996;48.138;11.538;2023-08-17T01:32:21;10.80;;;6.60;;
69730;SDS011;56996;48.138;11.538;2023-08-17T01:35:02;10.40;;;6.70;;
69730;SDS011;56996;48.138;11.538;2023-08-17T01:37:50;10.20;;;6.50;;
69730;SDS011;56996;48.138;11.538;2023-08-17T01:40:20;11.50;;;6.30;;
69730;SDS011;56996;48.138;11.538;2023-08-17T01:42:48;8.90;;;5.70;;
69730;SDS011;56996;48.138;11.538;2023-08-17T01:45:16;10.80;;;6.30;;
69730;SDS011;56996;48.138;11.538;2023-08-17T01:47:42;9.60;;;6.30;;
69730;SDS011;56996;48.138;11.538;2023-08-17T01:50:09;9.20;;;5.80;;
69730;SDS011;56996;48.138;11.538;2023-08-17T01:52:36;9.40;;;6.10;;
69730;SDS011;56996;48.138;11.538;2023-08-17T01:55:05;10.10;;;6.10;;
69730;SDS011;56996;48.138;11.538;2023-08-17T01:57:32;12.50;;;6.50;;
69730;SDS011;56996;48.138;11.538;2023-08-17T01:59:59;10.60;;;6.30;;
69730;SDS011;56996;48.138;11.538;2023-08-17T02:02:26;9.80;;;6.00;;
69730;SDS011;56996;48.138;11.538;2023-08-17T02:04:53;9.90;;;6.10;;
69730;SDS011;56996;48.138;11.538;2023-08-17T02:07:20;10.40;;;6.30;;
69730;SDS011;56996;48.138;11.538;2023-08-17T02:09:48;11.40;;;6.30;;
69730;SDS011;56996;48.138;11.538;2023-08-17T02:12:15;9.90;;;6.50;;
69730;SDS011;56996;48.138;11.538;2023-08-17T02:14:41;10.70;;;5.80;;
69730;SDS011;56996;48.138;11.538;2023-08-17T02:17:08;10.80;;;6.50;;
69730;SDS011;56996;48.138;11.538;2023-08-17T02:19:35;9.50;;;6.00;;
69730;SDS011;56996;48.138;11.538;2023-08-17T02:22:01;9.80;;;6.50;;
69730;SDS011;56996;48.138;11.538;2023-08-17T02:24:28;10.80;;;6.30;;
69730;SDS011;56996;48.138;11.538;2023-08-17T02:26:55;10.20;;;6.50;;
69730;SDS011;56996;48.138;11.538;2023-08-17T02:29:21;10.60;;;6.60;;
69730;SDS011;56996;48.138;11.538;2023-08-17T02:31:48;10.00;;;6.50;;
69730;SDS011;56996;48.138;11.538;2023-08-17T02:34:15;10.70;;;6.40;;
69730;SDS011;56996;48.138;11.538;2023-08-17T02:36:42;10.60;;;6.10;;
69730;SDS011;56996;48.138;11.538;2023-08-17T02:39:09;11.70;;;6.50;;
69730;SDS011;56996;48.138;11.538;2023-08-17T02:41:36;11.20;;;6.90;;
69730;SDS011;56996;48.138;11.538;2023-08-17T02:44:03;10.40;;;6.00;;
69730;SDS011;56996;48.138;11.538;2023-08-17T02:46:29;9.90;;;6.20;;
69730;SDS011;56996;48.138;11.538;2023-08-17T02:48:56;10.80;;;6.50;;
69730;SDS011;56996;48.138;11.538;2023-08-17T02:51:23;10.70;;;6.20;;
69730;SDS011;56996;48.138;11.538;2023-08-17T02:53:50;11.20;;;6.20;;
69730;SDS011;56996;48.138;11.538;2023-08-17T02:56:17;9.70;;;6.50;;
69730;SDS011;56996;48.138;11.538;2023-08-17T02:58:44;10.20;;;6.00;;
69730;SDS011;56996;48.138;11.538;2023-08-17T03:01:10;10.30;;;5.90;;
69730;SDS011;56996;48.138;11.538;2023-08-17T03:03:37;9.60;;;5.90;;
69730;SDS011;56996;48.138;11.538;2023-08-17T03:06:04;9.90;;;5.80;;
69730;SDS011;56996;48.138;11.538;2023-08-17T03:08:31;11.30;;;6.20;;
69730;SDS011;56996;48.138;11.538;2023-08-17T03:10:58;10.50;;;6.00;;
69730;SDS011;56996;48.138;11.538;2023-08-17T03:13:25;11.10;;;6.50;;
69730;SDS011;56996;48.138;11.538;2023-08-17T03:15:52;10.70;;;6.20;;
69730;SDS011;56996;48.138;11.538;2023-08-17T03:18:18;10.90;;;6.30;;
69730;SDS011;56996;48.138;11.538;2023-08-17T03:20:45;11.90;;;6.40;;
69730;SDS011;56996;48.138;11.538;2023-08-17T03:23:12;10.60;;;6.30;;
69730;SDS011;56996;48.138;11.538;2023-08-17T03:25:39;10.40;;;6.10;;
69730;SDS011;56996;48.138;11.538;2023-08-17T03:28:06;9.90;;;6.50;;
69730;SDS011;56996;48.138;11.538;2023-08-17T03:30:33;10.00;;;6.20;;
69730;SDS011;56996;48.138;11.538;2023-08-17T03:33:00;9.80;;;6.40;;
69730;SDS011;56996;48.138;11.538;2023-08-17T03:35:26;9.60;;;5.90;;
69730;SDS011;56996;48.138;11.538;2023-08-17T03:37:53;10.00;;;6.20;;
69730;SDS011;56996;48.138;11.538;2023-08-17T03:40:20;10.20;;;6.30;;
69730;SDS011;56996;48.138;11.538;2023-08-17T03:42:46;9.40;;;6.50;;
69730;SDS011;56996;48.138;11.538;2023-08-17T03:45:13;9.80;;;5.80;;
69730;SDS011;56996;48.138;11.538;2023-08-17T03:47:40;11.30;;;5.90;;
69730;SDS011;56996;48.138;11.538;2023-08-17T03:50:08;10.50;;;6.60;;
69730;SDS011;56996;48.138;11.538;2023-08-17T03:52:35;10.30;;;6.10;;
69730;SDS011;56996;48.138;11.538;2023-08-17T03:55:02;11.20;;;6.60;;
69730;SDS011;56996;48.138;11.538;2023-08-17T03:57:29;9.80;;;6.30;;
69730;SDS011;56996;48.138;11.538;2023-08-17T03:59:59;10.60;;;6.10;;
69730;SDS011;56996;48.138;11.538;2023-08-17T04:02:25;10.50;;;6.50;;
69730;SDS011;56996;48.138;11.538;2023-08-17T04:04:52;10.70;;;6.50;;
69730;SDS011;56996;48.138;11.538;2023-08-17T04:07:22;11.10;;;6.70;;
69730;SDS011;56996;48.138;11.538;2023-08-17T04:09:52;10.20;;;6.60;;
69730;SDS011;56996;48.138;11.538;2023-08-17T04:12:18;10.20;;;6.10;;
69730;SDS011;56996;48.138;11.538;2023-08-17T04:14:45;10.50;;;6.60;;
69730;SDS011;56996;48.138;11.538;2023-08-17T04:17:12;10.90;;;6.90;;
69730;SDS011;56996;48.138;11.538;2023-08-17T04:19:38;11.80;;;6.80;;
69730;SDS011;56996;48.138;11.538;2023-08-17T04:22:07;10.90;;;6.90;;
69730;SDS011;56996;48.138;11.538;2023-08-17T04:24:34;11.70;;;6.70;;
69730;SDS011;56996;48.138;11.538;2023-08-17T04:27:01;10.30;;;6.20;;
69730;SDS011;56996;48.138;11.538;2023-08-17T04:29:30;10.10;;;6.40;;
69730;SDS011;56996;48.138;11.538;2023-08-17T04:31:58;9.70;;;6.00;;
69730;SDS011;56996;48.138;11.538;2023-08-17T04:34:25;10.70;;;6.50;;
69730;SDS011;56996;48.138;11.538;2023-08-17T04:36:52;10.80;;;6.50;;
69730;SDS011;56996;48.138;11.538;2023-08-17T04:39:19;11.30;;;6.10;;
69730;SDS011;56996;48.138;11.538;2023-08-17T04:41:45;12.00;;;6.10;;
69730;SDS011;56996;48.138;11.538;2023-08-17T04:44:14;12.70;;;7.90;;
69730;SDS011;56996;48.138;11.538;2023-08-17T04:46:41;14.20;;;9.50;;
69730;SDS011;56996;48.138;11.538;2023-08-17T04:49:08;10.20;;;7.10;;
69730;SDS011;56996;48.138;11.538;2023-08-17T04:51:35;12.00;;;8.10;;
69730;SDS011;56996;48.138;11.538;2023-08-17T04:54:01;10.40;;;6.70;;
69730;SDS011;56996;48.138;11.538;2023-08-17T04:56:28;11.40;;;6.30;;
69730;SDS011;56996;48.138;11.538;2023-08-17T04:58:55;13.30;;;7.80;;
69730;SDS011;56996;48.138;11.538;2023-08-17T05:01:22;51.50;;;39.90;;
69730;SDS011;56996;48.138;11.538;2023-08-17T05:03:49;12.60;;;7.60;;
69730;SDS011;56996;48.138;11.538;2023-08-17T05:06:16;11.30;;;7.00;;
69730;SDS011;56996;48.138;11.538;2023-08-17T05:08:43;9.40;;;6.20;;
69730;SDS011;56996;48.138;11.538;2023-08-17T05:11:09;10.50;;;6.70;;
69730;SDS011;56996;48.138;11.538;2023-08-17T05:13:37;10.70;;;6.50;;
69730;SDS011;56996;48.138;11.538;2023-08-17T05:16:04;10.10;;;6.70;;
69730;SDS011;56996;48.138;11.538;2023-08-17T05:18:31;11.30;;;6.30;;
69730;SDS011;56996;48.138;11.538;2023-08-17T05:20:59;10.20;;;6.90;;
69730;SDS011;56996;48.138;11.538;2023-08-17T05:23:26;11.60;;;6.90;;
69730;SDS011;56996;48.138;11.538;2023-08-17T05:25:54;11.00;;;6.60;;
69730;SDS011;56996;48.138;11.538;2023-08-17T05:28:22;10.00;;;6.50;;
69730;SDS011;56996;48.138;11.538;2023-08-17T05:30:49;9.40;;;6.30;;
69730;SDS011;56996;48.138;11.538;2023-08-17T05:33:16;9.90;;;6.90;;
69730;SDS011;56996;48.138;11.538;2023-08-17T05:35:43;11.80;;;6.60;;
69730;SDS011;56996;48.138;11.538;2023-08-17T05:38:10;12.50;;;7.40;;
69730;SDS011;56996;48.138;11.538;2023-08-17T05:40:37;19.90;;;15.10;;
69730;SDS011;56996;48.138;11.538;2023-08-17T05:43:04;13.00;;;8.60;;
69730;SDS011;56996;48.138;11.538;2023-08-17T05:45:30;15.30;;;8.70;;
69730;SDS011;56996;48.138;11.538;2023-08-17T05:47:57;12.30;;;7.70;;
69730;SDS011;56996;48.138;11.538;2023-08-17T05:50:24;11.80;;;8.00;;
69730;SDS011;56996;48.138;11.538;2023-08-17T05:52:52;12.70;;;7.00;;
69730;SDS011;56996;48.138;11.538;2023-08-17T05:55:18;10.80;;;7.10;;
69730;SDS011;56996;48.138;11.538;2023-08-17T05:57:45;11.50;;;7.00;;
69730;SDS011;56996;48.138;11.538;2023-08-17T06:00:12;12.10;;;7.30;;
69730;SDS011;56996;48.138;11.538;2023-08-17T06:02:41;10.40;;;5.80;;
69730;SDS011;56996;48.138;11.538;2023-08-17T06:05:08;9.60;;;6.10;;
69730;SDS011;56996;48.138;11.538;2023-08-17T06:07:35;9.70;;;6.20;;
69730;SDS011;56996;48.138;11.538;2023-08-17T06:10:04;8.10;;;5.50;;
69730;SDS011;56996;48.138;11.538;2023-08-17T06:12:33;9.40;;;5.60;;
69730;SDS011;56996;48.138;11.538;2023-08-17T06:15:01;8.30;;;5.60;;
69730;SDS011;56996;48.138;11.538;2023-08-17T06:17:29;11.10;;;5.40;;
69730;SDS011;56996;48.138;11.538;2023-08-17T06:19:56;8.50;;;5.70;;
69730;SDS011;56996;48.138;11.538;2023-08-17T06:22:22;8.40;;;5.70;;
69730;SDS011;56996;48.138;11.538;2023-08-17T06:24:49;9.90;;;6.00;;
69730;SDS011;56996;48.138;11.538;2023-08-17T06:27:16;7.50;;;5.70;;
69730;SDS011;56996;48.138;11.538;2023-08-17T06:29:42;8.20;;;5.60;;
69730;SDS011;56996;48.138;11.538;2023-08-17T06:32:10;9.00;;;5.90;;
69730;SDS011;56996;48.138;11.538;2023-08-17T06:34:37;8.80;;;5.50;;
69730;SDS011;56996;48.138;11.538;2023-08-17T06:37:03;7.70;;;6.00;;
69730;SDS011;56996;48.138;11.538;2023-08-17T06:39:33;8.70;;;6.00;;
69730;SDS011;56996;48.138;11.538;2023-08-17T06:42:00;8.60;;;6.30;;
69730;SDS011;56996;48.138;11.538;2023-08-17T06:44:27;8.00;;;5.90;;
69730;SDS011;56996;48.138;11.538;2023-08-17T06:46:55;8.60;;;6.30;;
69730;SDS011;56996;48.138;11.538;2023-08-17T06:49:22;8.00;;;5.90;;
69730;SDS011;56996;48.138;11.538;2023-08-17T06:51:49;8.70;;;6.90;;
69730;SDS011;56996;48.138;11.538;2023-08-17T06:54:15;7.70;;;6.70;;
69730;SDS011;56996;48.138;11.538;2023-08-17T06:56:42;8.10;;;6.90;;
69730;SDS011;56996;48.138;11.538;2023-08-17T06:59:09;8.20;;;7.00;;
69730;SDS011;56996;48.138;11.538;2023-08-17T07:01:36;9.00;;;6.90;;
69730;SDS011;56996;48.138;11.538;2023-08-17T07:04:03;10.00;;;7.40;;
69730;SDS011;56996;48.138;11.538;2023-08-17T07:06:30;13.60;;;12.50;;
69730;SDS011;56996;48.138;11.538;2023-08-17T07:08:57;8.70;;;7.80;;
69730;SDS011;56996;48.138;11.538;2023-08-17T07:11:24;8.40;;;7.60;;
69730;SDS011;56996;48.138;11.538;2023-08-17T07:13:50;9.00;;;7.20;;
69730;SDS011;56996;48.138;11.538;2023-08-17T07:16:17;9.30;;;6.90;;
69730;SDS011;56996;48.138;11.538;2023-08-17T07:18:44;7.20;;;6.40;;
69730;SDS011;56996;48.138;11.538;2023-08-17T07:21:11;8.20;;;6.00;;
69730;SDS011;56996;48.138;11.538;2023-08-17T07:23:37;8.90;;;5.50;;
69730;SDS011;56996;48.138;11.538;2023-08-17T07:26:04;8.20;;;5.50;;
69730;SDS011;56996;48.138;11.538;2023-08-17T07:28:31;8.40;;;5.70;;
69730;SDS011;56996;48.138;11.538;2023-08-17T07:30:57;8.20;;;5.50;;
69730;SDS011;56996;48.138;11.538;2023-08-17T07:33:24;8.20;;;5.90;;
69730;SDS011;56996;48.138;11.538;2023-08-17T07:35:51;9.40;;;6.60;;
69730;SDS011;56996;48.138;11.538;2023-08-17T07:38:19;8.40;;;5.70;;
69730;SDS011;56996;48.138;11.538;2023-08-17T07:40:46;9.60;;;6.10;;
69730;SDS011;56996;48.138;11.538;2023-08-17T07:43:13;9.70;;;5.90;;
69730;SDS011;56996;48.138;11.538;2023-08-17T07:45:39;7.70;;;5.20;;
69730;SDS011;56996;48.138;11.538;2023-08-17T07:48:06;7.90;;;5.40;;
69730;SDS011;56996;48.138;11.538;2023-08-17T07:50:34;8.90;;;5.20;;
69730;SDS011;56996;48.138;11.538;2023-08-17T07:53:00;8.70;;;5.40;;
69730;SDS011;56996;48.138;11.538;2023-08-17T07:55:27;11.00;;;7.10;;
69730;SDS011;56996;48.138;11.538;2023-08-17T07:57:54;9.20;;;5.60;;
69730;SDS011;56996;48.138;11.538;2023-08-17T08:00:21;10.10;;;6.70;;
69730;SDS011;56996;48.138;11.538;2023-08-17T08:02:47;9.90;;;6.80;;
69730;SDS011;56996;48.138;11.538;2023-08-17T08:05:14;20.20;;;18.40;;
69730;SDS011;56996;48.138;11.538;2023-08-17T08:07:41;9.60;;;8.30;;
69730;SDS011;56996;48.138;11.538;2023-08-17T08:10:09;11.10;;;7.60;;
69730;SDS011;56996;48.138;11.538;2023-08-17T08:12:35;8.70;;;7.50;;
69730;SDS011;56996;48.138;11.538;2023-08-17T08:15:02;10.20;;;9.10;;
69730;SDS011;56996;48.138;11.538;2023-08-17T08:17:29;9.80;;;8.80;;
69730;SDS011;56996;48.138;11.538;2023-08-17T08:19:57;10.70;;;9.70;;
69730;SDS011;56996;48.138;11.538;2023-08-17T08:22:24;10.90;;;9.90;;
69730;SDS011;56996;48.138;11.538;2023-08-17T08:24:52;11.80;;;10.90;;
69730;SDS011;56996;48.138;11.538;2023-08-17T08:27:19;13.30;;;12.30;;
69730;SDS011;56996;48.138;11.538;2023-08-17T08:29:45;15.00;;;13.90;;
69730;SDS011;56996;48.138;11.538;2023-08-17T08:32:12;13.70;;;12.70;;
69730;SDS011;56996;48.138;11.538;2023-08-17T08:34:39;16.20;;;14.80;;
69730;SDS011;56996;48.138;11.538;2023-08-17T08:37:06;15.40;;;14.40;;
69730;SDS011;56996;48.138;11.538;2023-08-17T08:39:51;16.20;;;15.10;;
69730;SDS011;56996;48.138;11.538;2023-08-17T08:42:19;17.50;;;16.40;;
69730;SDS011;56996;48.138;11.538;2023-08-17T08:44:47;18.40;;;17.30;;
69730;SDS011;56996;48.138;11.538;2023-08-17T08:47:19;19.30;;;18.00;;
69730;SDS011;56996;48.138;11.538;2023-08-17T08:53:24;20.30;;;19.00;;
69730;SDS011;56996;48.138;11.538;2023-08-17T08:55:47;20.60;;;19.40;;
69730;SDS011;56996;48.138;11.538;2023-08-17T08:58:16;23.90;;;22.60;;
69730;SDS011;56996;48.138;11.538;2023-08-17T09:00:46;23.10;;;21.80;;
69730;SDS011;56996;48.138;11.538;2023-08-17T09:03:17;23.80;;;22.40;;
69730;SDS011;56996;48.138;11.538;2023-08-17T09:05:48;25.30;;;23.60;;
69730;SDS011;56996;48.138;11.538;2023-08-17T09:08:17;26.90;;;25.40;;
69730;SDS011;56996;48.138;11.538;2023-08-17T09:10:47;28.00;;;26.40;;
69730;SDS011;56996;48.138;11.538;2023-08-17T09:13:14;29.90;;;28.30;;
69730;SDS011;56996;48.138;11.538;2023-08-17T09:15:41;28.80;;;27.30;;
69730;SDS011;56996;48.138;11.538;2023-08-17T09:18:07;25.40;;;23.90;;
69730;SDS011;56996;48.138;11.538;2023-08-17T09:20:43;28.70;;;27.20;;
69730;SDS011;56996;48.138;11.538;2023-08-17T09:23:17;32.20;;;30.50;;
69730;SDS011;56996;48.138;11.538;2023-08-17T09:25:49;36.10;;;34.30;;
69730;SDS011;56996;48.138;11.538;2023-08-17T09:28:19;27.10;;;25.60;;
69730;SDS011;56996;48.138;11.538;2023-08-17T09:30:59;30.10;;;28.50;;
69730;SDS011;56996;48.138;11.538;2023-08-17T09:33:29;33.40;;;31.70;;
69730;SDS011;56996;48.138;11.538;2023-08-17T09:35:57;33.40;;;31.50;;
69730;SDS011;56996;48.138;11.538;2023-08-17T09:38:26;31.90;;;30.30;;
69730;SDS011;56996;48.138;11.538;2023-08-17T09:40:54;31.40;;;29.70;;
69730;SDS011;56996;48.138;11.538;2023-08-17T09:43:22;31.60;;;30.00;;
69730;SDS011;56996;48.138;11.538;2023-08-17T09:45:49;27.90;;;26.50;;
69730;SDS011;56996;48.138;11.538;2023-08-17T09:48:19;30.40;;;28.80;;
69730;SDS011;56996;48.138;11.538;2023-08-17T09:50:47;26.00;;;24.60;;
69730;SDS011;56996;48.138;11.538;2023-08-17T09:53:16;24.40;;;23.00;;
69730;SDS011;56996;48.138;11.538;2023-08-17T09:55:45;22.90;;;21.50;;
69730;SDS011;56996;48.138;11.538;2023-08-17T09:58:13;20.10;;;18.80;;
69730;SDS011;56996;48.138;11.538;2023-08-17T10:00:49;27.20;;;25.40;;
69730;SDS011;56996;48.138;11.538;2023-08-17T10:03:18;14.10;;;13.10;;
69730;SDS011;56996;48.138;11.538;2023-08-17T10:05:59;13.80;;;12.80;;
69730;SDS011;56996;48.138;11.538;2023-08-17T10:08:30;11.90;;;10.90;;
69730;SDS011;56996;48.138;11.538;2023-08-17T10:10:59;11.30;;;10.20;;
69730;SDS011;56996;48.138;11.538;2023-08-17T10:13:39;10.30;;;9.30;;
69730;SDS011;56996;48.138;11.538;2023-08-17T10:16:31;10.40;;;9.40;;
69730;SDS011;56996;48.138;11.538;2023-08-17T10:19:06;10.20;;;9.10;;
69730;SDS011;56996;48.138;11.538;2023-08-17T10:22:10;8.30;;;7.30;;
69730;SDS011;56996;48.138;11.538;2023-08-17T10:24:45;9.00;;;7.40;;
69730;SDS011;56996;48.138;11.538;2023-08-17T10:27:13;7.30;;;6.50;;
69730;SDS011;56996;48.138;11.538;2023-08-17T10:29:41;7.60;;;6.80;;
69730;SDS011;56996;48.138;11.538;2023-08-17T10:32:08;7.70;;;6.20;;
69730;SDS011;56996;48.138;11.538;2023-08-17T10:34:36;8.10;;;6.00;;
69730;SDS011;56996;48.138;11.538;2023-08-17T10:37:03;8.90;;;6.20;;
69730;SDS011;56996;48.138;11.538;2023-08-17T10:39:30;9.20;;;5.80;;
69730;SDS011;56996;48.138;11.538;2023-08-17T10:41:58;8.30;;;5.50;;
69730;SDS011;56996;48.138;11.538;2023-08-17T10:44:51;9.10;;;6.40;;
69730;SDS011;56996;48.138;11.538;2023-08-17T10:47:30;21.00;;;19.00;;
69730;SDS011;56996;48.138;11.538;2023-08-17T10:50:06;8.60;;;6.50;;
69730;SDS011;56996;48.138;11.538;2023-08-17T10:52:49;9.10;;;5.80;;
69730;SDS011;56996;48.138;11.538;2023-08-17T10:55:16;7.80;;;5.60;;
69730;SDS011;56996;48.138;11.538;2023-08-17T10:57:45;9.30;;;7.40;;
69730;SDS011;56996;48.138;11.538;2023-08-17T11:00:20;8.50;;;6.30;;
69730;SDS011;56996;48.138;11.538;2023-08-17T11:05:41;8.00;;;5.30;;
69730;SDS011;56996;48.138;11.538;2023-08-17T11:08:28;10.40;;;7.40;;
69730;SDS011;56996;48.138;11.538;2023-08-17T11:11:06;8.50;;;6.00;;
69730;SDS011;56996;48.138;11.538;2023-08-17T11:13:41;7.20;;;5.20;;
69730;SDS011;56996;48.138;11.538;2023-08-17T11:16:13;28.40;;;25.80;;
69730;SDS011;56996;48.138;11.538;2023-08-17T11:18:43;7.60;;;5.50;;
69730;SDS011;56996;48.138;11.538;2023-08-17T11:21:11;7.10;;;5.20;;
69730;SDS011;56996;48.138;11.538;2023-08-17T11:23:45;7.70;;;5.10;;
69730;SDS011;56996;48.138;11.538;2023-08-17T11:26:15;7.60;;;4.80;;
69730;SDS011;56996;48.138;11.538;2023-08-17T11:28:44;6.50;;;4.80;;
69730;SDS011;56996;48.138;11.538;2023-08-17T11:31:13;9.50;;;7.80;;
69730;SDS011;56996;48.138;11.538;2023-08-17T11:33:43;8.30;;;5.40;;
69730;SDS011;56996;48.138;11.538;2023-08-17T11:36:13;7.10;;;4.90;;
69730;SDS011;56996;48.138;11.538;2023-08-17T11:38:42;8.10;;;5.20;;
69730;SDS011;56996;48.138;11.538;2023-08-17T11:41:11;7.70;;;5.90;;
69730;SDS011;56996;48.138;11.538;2023-08-17T11:43:43;9.00;;;6.30;;
69730;SDS011;56996;48.138;11.538;2023-08-17T11:46:11;7.30;;;5.40;;
69730;SDS011;56996;48.138;11.538;2023-08-17T11:48:39;7.40;;;5.40;;
69730;SDS011;56996;48.138;11.538;2023-08-17T11:51:06;8.20;;;5.30;;
69730;SDS011;56996;48.138;11.538;2023-08-17T11:53:36;8.00;;;5.70;;
69730;SDS011;56996;48.138;11.538;2023-08-17T11:56:07;7.90;;;5.70;;
69730;SDS011;56996;48.138;11.538;2023-08-17T11:58:46;8.10;;;4.60;;
69730;SDS011;56996;48.138;11.538;2023-08-17T12:01:14;7.60;;;5.80;;
69730;SDS011;56996;48.138;11.538;2023-08-17T12:03:44;9.20;;;6.10;;
69730;SDS011;56996;48.138;11.538;2023-08-17T12:06:12;11.20;;;8.90;;
69730;SDS011;56996;48.138;11.538;2023-08-17T12:08:46;9.30;;;6.10;;
69730;SDS011;56996;48.138;11.538;2023-08-17T12:11:16;7.70;;;5.80;;
69730;SDS011;56996;48.138;11.538;2023-08-17T12:13:52;8.80;;;5.50;;
69730;SDS011;56996;48.138;11.538;2023-08-17T12:16:22;8.30;;;5.60;;
69730;SDS011;56996;48.138;11.538;2023-08-17T12:18:51;12.90;;;11.30;;
69730;SDS011;56996;48.138;11.538;2023-08-17T12:21:22;9.50;;;6.70;;
69730;SDS011;56996;48.138;11.538;2023-08-17T12:23:50;8.00;;;5.90;;
69730;SDS011;56996;48.138;11.538;2023-08-17T12:26:21;9.90;;;5.70;;
69730;SDS011;56996;48.138;11.538;2023-08-17T12:28:49;8.10;;;5.70;;
69730;SDS011;56996;48.138;11.538;2023-08-17T12:31:21;7.70;;;4.80;;
69730;SDS011;56996;48.138;11.538;2023-08-17T12:33:52;8.30;;;5.40;;
69730;SDS011;56996;48.138;11.538;2023-08-17T12:36:18;7.70;;;5.50;;
69730;SDS011;56996;48.138;11.538;2023-08-17T12:38:47;8.20;;;5.70;;
69730;SDS011;56996;48.138;11.538;2023-08-17T12:41:17;7.80;;;6.00;;
69730;SDS011;56996;48.138;11.538;2023-08-17T12:43:44;7.80;;;5.30;;
69730;SDS011;56996;48.138;11.538;2023-08-17T12:46:11;7.70;;;5.50;;
69730;SDS011;56996;48.138;11.538;2023-08-17T12:48:38;8.10;;;5.30;;
69730;SDS011;56996;48.138;11.538;2023-08-17T12:51:05;8.00;;;5.20;;
69730;SDS011;56996;48.138;11.538;2023-08-17T12:53:32;9.70;;;6.00;;
69730;SDS011;56996;48.138;11.538;2023-08-17T12:55:58;8.70;;;5.70;;
69730;SDS011;56996;48.138;11.538;2023-08-17T12:58:25;8.60;;;5.40;;
69730;SDS011;56996;48.138;11.538;2023-08-17T13:00:52;8.30;;;5.30;;
69730;SDS011;56996;48.138;11.538;2023-08-17T13:03:21;7.20;;;5.10;;
69730;SDS011;56996;48.138;11.538;2023-08-17T13:05:48;7.90;;;4.90;;
69730;SDS011;56996;48.138;11.538;2023-08-17T13:08:14;6.90;;;4.90;;
69730;SDS011;56996;48.138;11.538;2023-08-17T13:10:41;8.50;;;5.40;;
69730;SDS011;56996;48.138;11.538;2023-08-17T13:13:08;7.20;;;4.60;;
69730;SDS011;56996;48.138;11.538;2023-08-17T13:15:36;7.40;;;5.20;;
69730;SDS011;56996;48.138;11.538;2023-08-17T13:18:03;7.90;;;5.30;;
69730;SDS011;56996;48.138;11.538;2023-08-17T13:20:30;8.90;;;6.10;;
69730;SDS011;56996;48.138;11.538;2023-08-17T13:22:57;6.60;;;4.50;;
69730;SDS011;56996;48.138;11.538;2023-08-17T13:25:24;7.20;;;4.80;;
69730;SDS011;56996;48.138;11.538;2023-08-17T13:27:51;7.10;;;3.90;;
69730;SDS011;56996;48.138;11.538;2023-08-17T13:30:17;7.10;;;4.50;;
69730;SDS011;56996;48.138;11.538;2023-08-17T13:32:44;8.40;;;6.20;;
69730;SDS011;56996;48.138;11.538;2023-08-17T13:35:13;7.60;;;4.50;;
69730;SDS011;56996;48.138;11.538;2023-08-17T13:37:40;8.40;;;4.50;;
69730;SDS011;56996;48.138;11.538;2023-08-17T13:40:08;6.60;;;4.70;;
69730;SDS011;56996;48.138;11.538;2023-08-17T13:42:35;7.90;;;4.80;;
69730;SDS011;56996;48.138;11.538;2023-08-17T13:45:03;7.90;;;4.60;;
69730;SDS011;56996;48.138;11.538;2023-08-17T13:47:30;7.70;;;4.70;;
69730;SDS011;56996;48.138;11.538;2023-08-17T13:49:57;8.10;;;4.60;;
69730;SDS011;56996;48.138;11.538;2023-08-17T13:52:25;7.50;;;4.70;;
69730;SDS011;56996;48.138;11.538;2023-08-17T13:54:52;7.60;;;5.30;;
69730;SDS011;56996;48.138;11.538;2023-08-17T13:57:19;8.10;;;5.70;;
69730;SDS011;56996;48.138;11.538;2023-08-17T13:59:46;8.00;;;5.20;;
69730;SDS011;56996;48.138;11.538;2023-08-17T14:02:12;7.50;;;5.40;;
69730;SDS011;56996;48.138;11.538;2023-08-17T14:04:39;7.80;;;4.50;;
69730;SDS011;56996;48.138;11.538;2023-08-17T14:07:06;7.50;;;4.50;;
69730;SDS011;56996;48.138;11.538;2023-08-17T14:09:32;8.00;;;5.10;;
69730;SDS011;56996;48.138;11.538;2023-08-17T14:11:59;7.60;;;4.90;;
69730;SDS011;56996;48.138;11.538;2023-08-17T14:14:27;8.00;;;5.30;;
69730;SDS011;56996;48.138;11.538;2023-08-17T14:16:54;9.70;;;6.10;;
69730;SDS011;56996;48.138;11.538;2023-08-17T14:19:22;10.30;;;6.20;;
69730;SDS011;56996;48.138;11.538;2023-08-17T14:21:49;10.00;;;6.30;;
69730;SDS011;56996;48.138;11.538;2023-08-17T14:24:16;8.40;;;5.90;;
69730;SDS011;56996;48.138;11.538;2023-08-17T14:26:43;8.70;;;6.10;;
69730;SDS011;56996;48.138;11.538;2023-08-17T14:29:10;8.90;;;6.50;;
69730;SDS011;56996;48.138;11.538;2023-08-17T14:31:36;8.90;;;6.40;;
69730;SDS011;56996;48.138;11.538;2023-08-17T14:34:03;8.40;;;6.40;;
69730;SDS011;56996;48.138;11.538;2023-08-17T14:36:32;10.00;;;6.40;;
69730;SDS011;56996;48.138;11.538;2023-08-17T14:38:59;9.70;;;6.40;;
69730;SDS011;56996;48.138;11.538;2023-08-17T14:41:26;9.00;;;6.50;;
69730;SDS011;56996;48.138;11.538;2023-08-17T14:44:01;10.80;;;6.70;;